Time;durP1;ratioP1;P1;durP2;ratioP2;P2;SDS_P1;SDS_P2;PMS_P1;PMS_P2;Temp;Humidity;BMP_temperature;BMP_pressure;BME280_temperature;BME280_humidity;BME280_pressure;Samples;Min_cycle;Max_cycle;Signal;HPM_P1;HPM_P2
2022/10/10 00:00:07;;;;;;;5.30;2.60;;;8.90;99.90;;;;;;6249328;22;20233;-43
2022/10/10 00:02:34;;;;;;;8.17;2.50;;;8.80;99.90;;;;;;6246531;23;20201;-42
2022/10/10 00:04:59;;;;;;;4.33;2.40;;;8.80;99.90;;;;;;6247470;22;20622;-42
2022/10/10 00:07:25;;;;;;;4.47;2.17;;;8.70;99.90;;;;;;6247659;22;20554;-41
2022/10/10 00:09:50;;;;;;;6.77;2.17;;;8.70;99.90;;;;;;6248024;22;20152;-45
2022/10/10 00:12:16;;;;;;;4.33;2.50;;;8.70;99.90;;;;;;6247390;22;20156;-42
2022/10/10 00:14:41;;;;;;;3.47;2.47;;;8.70;99.90;;;;;;6247902;22;20157;-42
2022/10/10 00:17:07;;;;;;;3.67;2.40;;;8.70;99.90;;;;;;6247240;22;20176;-43
2022/10/10 00:19:32;;;;;;;6.53;2.67;;;8.70;99.90;;;;;;6247819;22;20158;-43
2022/10/10 00:21:58;;;;;;;5.53;2.53;;;8.70;99.90;;;;;;6247455;22;20184;-43
2022/10/10 00:24:23;;;;;;;5.53;2.60;;;8.60;99.90;;;;;;6248042;22;20155;-45
2022/10/10 00:26:49;;;;;;;3.47;2.17;;;8.60;99.90;;;;;;6247237;22;20188;-42
2022/10/10 00:29:14;;;;;;;4.47;2.53;;;8.60;99.90;;;;;;6246820;22;20212;-45
2022/10/10 00:31:40;;;;;;;2.67;2.00;;;8.60;99.90;;;;;;6247800;22;20474;-45
2022/10/10 00:34:05;;;;;;;3.53;2.40;;;8.60;99.90;;;;;;6247053;22;20219;-43
2022/10/10 00:36:31;;;;;;;3.13;2.40;;;8.60;99.90;;;;;;6247296;22;20274;-43
2022/10/10 00:38:57;;;;;;;4.13;2.50;;;8.60;99.90;;;;;;6250466;22;20178;-44
2022/10/10 00:41:22;;;;;;;4.73;2.40;;;8.50;99.90;;;;;;6247150;22;20150;-43
2022/10/10 00:44:02;;;;;;;4.93;2.57;;;8.60;99.90;;;;;;6247677;22;20157;-43
2022/10/10 00:46:27;;;;;;;3.33;2.57;;;8.60;99.90;;;;;;6245884;23;20189;-42
2022/10/10 00:48:53;;;;;;;3.37;2.50;;;8.60;99.90;;;;;;6247403;22;20167;-43
2022/10/10 00:51:19;;;;;;;2.57;2.37;;;8.60;99.90;;;;;;6247796;22;20486;-43
2022/10/10 00:53:55;;;;;;;3.07;2.20;;;8.60;99.90;;;;;;6247060;22;20183;-43
2022/10/10 00:56:25;;;;;;;4.43;2.60;;;8.50;99.90;;;;;;6247016;22;20227;-43
2022/10/10 00:58:54;;;;;;;6.97;2.40;;;8.50;99.90;;;;;;6247513;22;20168;-43
2022/10/10 01:01:20;;;;;;;5.40;2.47;;;8.50;99.90;;;;;;6247294;22;20156;-44
2022/10/10 01:03:46;;;;;;;5.63;2.60;;;8.50;99.90;;;;;;6245443;23;20662;-42
2022/10/10 01:06:12;;;;;;;3.60;2.50;;;8.50;99.90;;;;;;6246808;22;20153;-42
2022/10/10 01:08:38;;;;;;;5.60;2.40;;;8.50;99.90;;;;;;6245452;23;20159;-45
2022/10/10 01:11:31;;;;;;;6.53;2.47;;;8.40;99.90;;;;;;6245592;23;20163;-43
2022/10/10 01:14:20;;;;;;;8.03;2.63;;;8.40;99.90;;;;;;6246802;22;20155;-45
2022/10/10 01:17:05;;;;;;;3.53;2.30;;;8.40;99.90;;;;;;6247143;22;20258;-42
2022/10/10 01:20:10;;;;;;;2.70;2.30;;;8.30;99.90;;;;;;6246949;22;20151;-42
2022/10/10 01:22:54;;;;;;;4.17;2.70;;;8.30;99.90;;;;;;6242573;23;20156;-45
2022/10/10 01:25:20;;;;;;;3.40;2.30;;;8.30;99.90;;;;;;6245527;23;20155;-41
2022/10/10 01:27:51;;;;;;;4.13;2.23;;;8.30;99.90;;;;;;6247135;22;20179;-44
2022/10/10 01:30:20;;;;;;;3.50;2.50;;;8.30;99.90;;;;;;6247289;22;20144;-45
2022/10/10 01:32:49;;;;;;;4.03;2.33;;;8.30;99.90;;;;;;6245530;23;20196;-45
2022/10/10 01:35:32;;;;;;;6.20;2.53;;;8.20;99.90;;;;;;6247326;22;20160;-46
2022/10/10 01:38:26;;;;;;;6.03;2.60;;;8.20;99.90;;;;;;6247869;22;20194;-46
2022/10/10 01:41:03;;;;;;;5.00;2.87;;;8.20;99.90;;;;;;6242266;23;20160;-40
2022/10/10 01:43:29;;;;;;;3.63;2.43;;;8.20;99.90;;;;;;6245213;23;20153;-39
2022/10/10 01:45:55;;;;;;;4.57;2.60;;;8.10;99.90;;;;;;6245685;23;20656;-37
2022/10/10 01:48:31;;;;;;;4.20;2.67;;;8.10;99.90;;;;;;6245112;23;20186;-41
2022/10/10 01:51:34;;;;;;;8.30;2.63;;;8.10;99.90;;;;;;6247618;22;20160;-40
2022/10/10 01:54:28;;;;;;;4.07;2.60;;;8.10;99.90;;;;;;6247124;23;20163;-43
2022/10/10 01:57:21;;;;;;;4.03;2.70;;;8.10;99.90;;;;;;6245529;23;20180;-42
2022/10/10 02:00:08;;;;;;;4.87;2.43;;;8.10;99.90;;;;;;6246699;22;20170;-43
2022/10/10 02:02:48;;;;;;;3.27;2.23;;;8.00;99.90;;;;;;6244900;23;20167;-43
2022/10/10 02:05:31;;;;;;;4.07;2.30;;;8.00;99.90;;;;;;6247367;22;20241;-40
2022/10/10 02:08:06;;;;;;;7.07;3.17;;;8.00;99.90;;;;;;6246785;22;20182;-40
2022/10/10 02:10:35;;;;;;;3.50;2.57;;;8.00;99.90;;;;;;6247135;22;20143;-39
2022/10/10 02:13:03;;;;;;;4.40;2.53;;;8.00;99.90;;;;;;6247510;23;20152;-38
2022/10/10 02:15:36;;;;;;;4.80;2.53;;;8.00;99.90;;;;;;6246645;22;20333;-39
2022/10/10 02:18:05;;;;;;;4.17;2.40;;;7.90;99.90;;;;;;6246356;22;20180;-40
2022/10/10 02:20:31;;;;;;;5.60;2.70;;;7.90;99.90;;;;;;6246432;22;20152;-41
2022/10/10 02:22:57;;;;;;;3.33;2.43;;;7.90;99.90;;;;;;6246192;23;20613;-37
2022/10/10 02:25:28;;;;;;;3.67;2.40;;;7.90;99.90;;;;;;6246479;22;20164;-40
2022/10/10 02:28:09;;;;;;;5.40;2.67;;;7.80;99.90;;;;;;6246387;22;20264;-39
2022/10/10 02:30:38;;;;;;;3.37;2.60;;;7.80;99.90;;;;;;6246823;23;20152;-38
2022/10/10 02:33:06;;;;;;;5.70;2.30;;;7.80;99.90;;;;;;6247525;22;20155;-39
2022/10/10 02:35:35;;;;;;;4.27;2.70;;;7.70;99.90;;;;;;6247040;22;20155;-40
2022/10/10 02:38:05;;;;;;;4.03;2.80;;;7.70;99.90;;;;;;6246501;22;20187;-38
2022/10/10 02:40:33;;;;;;;6.27;2.50;;;7.70;99.90;;;;;;6246508;22;20152;-38
2022/10/10 02:43:01;;;;;;;4.10;2.47;;;7.60;99.90;;;;;;6246074;22;20492;-39
2022/10/10 02:45:28;;;;;;;8.43;2.70;;;7.70;99.90;;;;;;6246583;22;20647;-37
2022/10/10 02:47:54;;;;;;;5.60;2.60;;;7.60;99.90;;;;;;6246354;22;20225;-40
2022/10/10 02:50:21;;;;;;;5.97;2.40;;;7.60;99.90;;;;;;6245993;22;20155;-40
2022/10/10 02:52:47;;;;;;;3.10;2.20;;;7.50;99.90;;;;;;6248243;22;20162;-42
2022/10/10 02:55:12;;;;;;;4.13;2.30;;;7.50;99.90;;;;;;6248175;22;20166;-39
2022/10/10 02:57:38;;;;;;;3.23;2.10;;;7.50;99.90;;;;;;6248228;22;20191;-41
2022/10/10 03:00:05;;;;;;;2.70;1.93;;;7.50;99.90;;;;;;6248365;22;20591;-43
2022/10/10 03:02:31;;;;;;;6.63;2.40;;;7.40;99.90;;;;;;6248416;22;20586;-41
2022/10/10 03:04:57;;;;;;;3.03;2.23;;;7.40;99.90;;;;;;6248022;22;20178;-41
2022/10/10 03:07:24;;;;;;;3.50;2.37;;;7.30;99.90;;;;;;6248488;22;20174;-41
2022/10/10 03:09:50;;;;;;;2.57;2.37;;;7.30;99.90;;;;;;6248333;22;20248;-40
2022/10/10 03:12:15;;;;;;;3.17;2.37;;;7.20;99.90;;;;;;6248094;22;20182;-41
2022/10/10 03:14:41;;;;;;;4.13;2.43;;;7.10;99.90;;;;;;6248128;22;20234;-39
2022/10/10 03:17:06;;;;;;;4.43;2.83;;;7.10;99.90;;;;;;6248052;22;20184;-42
2022/10/10 03:19:32;;;;;;;4.30;2.70;;;7.10;99.90;;;;;;6248049;22;20155;-39
2022/10/10 03:21:57;;;;;;;7.13;2.70;;;7.00;99.90;;;;;;6246447;23;20160;-39
2022/10/10 03:24:23;;;;;;;6.43;2.80;;;7.00;99.90;;;;;;6248039;22;20566;-43
2022/10/10 03:26:49;;;;;;;7.80;3.27;;;7.00;99.90;;;;;;6248160;22;20202;-40
2022/10/10 03:29:15;;;;;;;5.13;2.50;;;7.00;99.90;;;;;;6248168;22;20491;-40
2022/10/10 03:31:40;;;;;;;6.27;2.97;;;7.00;99.90;;;;;;6246840;22;20187;-45
2022/10/10 03:34:06;;;;;;;5.23;2.40;;;7.00;99.90;;;;;;6247830;22;20143;-45
2022/10/10 03:36:31;;;;;;;3.70;2.30;;;6.90;99.90;;;;;;6247570;22;20536;-43
2022/10/10 03:38:57;;;;;;;3.93;2.40;;;6.90;99.90;;;;;;6247449;22;20194;-44
2022/10/10 03:41:22;;;;;;;3.87;2.50;;;6.90;99.90;;;;;;6247662;22;20557;-45
2022/10/10 03:43:48;;;;;;;3.63;2.30;;;6.90;99.90;;;;;;6247924;22;20167;-45
2022/10/10 03:46:14;;;;;;;3.47;2.67;;;6.90;99.90;;;;;;6247521;22;20152;-47
2022/10/10 03:48:39;;;;;;;2.47;2.27;;;6.90;99.90;;;;;;6246352;23;20162;-45
2022/10/10 03:51:05;;;;;;;3.07;2.33;;;6.80;99.90;;;;;;6247484;22;20542;-44
2022/10/10 03:53:31;;;;;;;4.37;2.63;;;6.90;99.90;;;;;;6247418;22;20494;-46
2022/10/10 03:55:56;;;;;;;5.43;2.60;;;6.80;99.90;;;;;;6247706;22;20232;-43
2022/10/10 03:58:22;;;;;;;3.40;2.80;;;6.80;99.90;;;;;;6247272;22;20183;-44
2022/10/10 04:00:59;;;;;;;3.17;2.40;;;6.70;99.90;;;;;;6247711;22;20179;-46
2022/10/10 04:03:25;;;;;;;6.43;2.60;;;6.70;99.90;;;;;;6247277;22;20174;-45
2022/10/10 04:05:51;;;;;;;4.07;2.60;;;6.70;99.90;;;;;;6247195;22;20159;-45
2022/10/10 04:08:17;;;;;;;4.17;2.80;;;6.70;99.90;;;;;;6247533;22;20195;-46
2022/10/10 04:10:43;;;;;;;2.77;2.50;;;6.70;99.90;;;;;;6247236;22;20234;-44
2022/10/10 04:13:08;;;;;;;4.87;3.03;;;6.60;99.90;;;;;;6246653;23;20155;-45
2022/10/10 04:15:34;;;;;;;5.00;2.93;;;6.70;99.90;;;;;;6247499;22;20485;-45
2022/10/10 04:18:00;;;;;;;9.67;2.67;;;6.70;99.90;;;;;;6246987;22;20191;-44
2022/10/10 04:20:26;;;;;;;5.77;2.33;;;6.70;99.90;;;;;;6247541;22;20193;-46
2022/10/10 04:22:51;;;;;;;3.40;2.67;;;6.70;99.90;;;;;;6247944;22;20151;-45
2022/10/10 04:25:17;;;;;;;4.07;2.60;;;6.70;99.90;;;;;;6247434;22;20159;-45
2022/10/10 04:27:43;;;;;;;3.53;2.53;;;6.70;99.90;;;;;;6247486;22;20175;-45
2022/10/10 04:30:09;;;;;;;7.23;2.80;;;6.60;99.90;;;;;;6247711;22;20169;-44
2022/10/10 04:32:36;;;;;;;4.13;2.57;;;6.60;99.90;;;;;;6247295;22;20179;-45
2022/10/10 04:35:01;;;;;;;8.43;2.60;;;6.60;99.90;;;;;;6247054;22;20179;-46
2022/10/10 04:37:27;;;;;;;4.67;3.00;;;6.60;99.90;;;;;;6246891;22;20633;-44
2022/10/10 04:39:52;;;;;;;4.57;2.50;;;6.60;99.90;;;;;;6247267;22;20238;-44
2022/10/10 04:42:18;;;;;;;4.50;2.50;;;6.60;99.90;;;;;;6247645;22;20150;-44
2022/10/10 04:44:43;;;;;;;3.90;2.60;;;6.60;99.90;;;;;;6246962;22;20152;-45
2022/10/10 04:47:09;;;;;;;3.10;2.57;;;6.60;99.90;;;;;;6246905;22;20257;-45
2022/10/10 04:49:35;;;;;;;3.60;2.70;;;6.50;99.90;;;;;;6246844;22;20213;-46
2022/10/10 04:52:00;;;;;;;3.50;2.77;;;6.60;99.90;;;;;;6247231;22;20155;-44
2022/10/10 04:54:26;;;;;;;3.60;2.57;;;6.50;99.90;;;;;;6246850;22;20233;-45
2022/10/10 04:56:51;;;;;;;3.37;2.57;;;6.50;99.90;;;;;;6246701;22;20170;-44
2022/10/10 04:59:17;;;;;;;5.07;2.90;;;6.50;99.90;;;;;;6247326;22;20206;-44
2022/10/10 05:01:42;;;;;;;5.87;2.63;;;6.50;99.90;;;;;;6246933;22;20155;-44
2022/10/10 05:04:08;;;;;;;3.20;2.60;;;6.40;99.90;;;;;;6246963;22;20231;-44
2022/10/10 05:06:34;;;;;;;5.90;2.80;;;6.40;99.90;;;;;;6246882;22;20175;-45
2022/10/10 05:08:59;;;;;;;2.80;2.30;;;6.30;99.90;;;;;;6247085;22;20516;-45
2022/10/10 05:11:25;;;;;;;7.90;2.63;;;6.30;99.90;;;;;;6245241;23;20162;-44
2022/10/10 05:13:51;;;;;;;4.97;2.63;;;6.30;99.90;;;;;;6246300;22;20158;-46
2022/10/10 05:16:17;;;;;;;7.23;2.77;;;6.30;99.90;;;;;;6246538;22;20183;-45
2022/10/10 05:18:43;;;;;;;3.97;2.43;;;6.40;99.90;;;;;;6245001;23;20187;-45
2022/10/10 05:21:10;;;;;;;5.40;2.43;;;6.30;99.90;;;;;;6246913;22;20158;-43
2022/10/10 05:23:37;;;;;;;4.73;2.50;;;6.30;99.90;;;;;;6246753;22;20161;-45
2022/10/10 05:26:03;;;;;;;3.73;3.10;;;6.30;99.90;;;;;;6246510;22;20150;-45
2022/10/10 05:28:29;;;;;;;6.30;3.07;;;6.40;99.90;;;;;;6246444;22;20182;-44
2022/10/10 05:30:55;;;;;;;8.40;2.87;;;6.40;99.90;;;;;;6246429;22;20584;-44
2022/10/10 05:33:20;;;;;;;4.03;2.87;;;6.40;99.90;;;;;;6244795;23;20202;-44
2022/10/10 05:35:46;;;;;;;4.57;2.90;;;6.40;99.90;;;;;;6246440;22;20160;-44
2022/10/10 05:38:12;;;;;;;8.13;2.60;;;6.40;99.90;;;;;;6246648;22;20631;-45
2022/10/10 05:40:41;;;;;;;4.53;2.97;;;6.40;99.90;;;;;;6246424;22;20159;-45
2022/10/10 05:43:59;;;;;;;5.63;3.10;;;6.40;99.90;;;;;;6247227;22;20159;-46
2022/10/10 05:46:26;;;;;;;6.13;2.87;;;6.40;99.90;;;;;;6246476;23;20142;-45
2022/10/10 05:48:52;;;;;;;7.03;3.27;;;6.40;99.90;;;;;;6246411;22;20596;-44
2022/10/10 05:51:19;;;;;;;4.83;2.87;;;6.40;99.90;;;;;;6245009;23;20227;-46
2022/10/10 05:53:46;;;;;;;5.47;2.90;;;6.50;99.90;;;;;;6246421;22;20246;-45
2022/10/10 05:56:13;;;;;;;10.63;3.40;;;6.50;99.90;;;;;;6246471;22;20615;-45
2022/10/10 05:58:39;;;;;;;5.07;3.00;;;6.50;99.90;;;;;;6246739;22;20265;-44
2022/10/10 06:01:06;;;;;;;7.30;3.10;;;6.50;99.90;;;;;;6246719;22;20240;-44
2022/10/10 06:03:32;;;;;;;3.07;2.77;;;6.50;99.90;;;;;;6246320;22;20155;-46
2022/10/10 06:05:58;;;;;;;8.30;3.37;;;6.60;99.90;;;;;;6246238;22;20188;-46
2022/10/10 06:08:24;;;;;;;6.60;3.00;;;6.60;99.90;;;;;;6246220;22;20551;-46
2022/10/10 06:10:50;;;;;;;6.73;3.23;;;6.60;99.90;;;;;;6246237;22;20224;-45
2022/10/10 06:13:17;;;;;;;4.60;3.20;;;6.60;99.90;;;;;;6247014;22;20572;-46
2022/10/10 06:15:42;;;;;;;9.07;3.67;;;6.60;99.90;;;;;;6246229;22;20156;-46
2022/10/10 06:18:09;;;;;;;7.67;3.40;;;6.60;99.90;;;;;;6246049;22;20189;-44
2022/10/10 06:20:36;;;;;;;5.93;3.30;;;6.60;99.90;;;;;;6246365;22;20151;-45
2022/10/10 06:23:02;;;;;;;7.53;4.10;;;6.60;99.90;;;;;;6246514;22;20178;-45
2022/10/10 06:25:28;;;;;;;6.87;3.60;;;6.60;99.90;;;;;;6245960;22;20594;-47
2022/10/10 06:27:53;;;;;;;7.60;3.60;;;6.60;99.90;;;;;;6246027;22;20188;-46
2022/10/10 06:30:19;;;;;;;8.20;3.70;;;6.70;99.90;;;;;;6246446;22;20616;-45
2022/10/10 06:32:46;;;;;;;14.53;4.03;;;6.70;99.90;;;;;;6246415;22;20179;-44
2022/10/10 06:35:11;;;;;;;7.67;3.87;;;6.70;99.90;;;;;;6244615;23;20162;-45
2022/10/10 06:37:37;;;;;;;10.67;3.77;;;6.80;99.90;;;;;;6246101;22;20194;-45
2022/10/10 06:40:03;;;;;;;6.73;3.90;;;6.90;99.90;;;;;;6246227;22;20150;-46
2022/10/10 06:42:28;;;;;;;6.27;4.13;;;6.90;99.90;;;;;;6246379;22;20152;-45
2022/10/10 06:44:54;;;;;;;8.00;4.30;;;7.00;99.90;;;;;;6245991;22;20161;-45
2022/10/10 06:47:19;;;;;;;8.07;3.97;;;7.00;99.90;;;;;;6246061;22;20202;-45
2022/10/10 06:49:45;;;;;;;12.27;4.47;;;7.10;99.90;;;;;;6246067;22;20154;-45
2022/10/10 06:52:10;;;;;;;10.47;4.40;;;7.20;99.90;;;;;;6245896;22;20209;-45
2022/10/10 06:54:36;;;;;;;13.63;4.30;;;7.30;99.90;;;;;;6245973;22;20158;-45
2022/10/10 06:57:01;;;;;;;8.27;4.33;;;7.40;99.90;;;;;;6244471;23;20175;-47
2022/10/10 06:59:27;;;;;;;6.07;4.57;;;7.50;99.90;;;;;;6246454;22;20211;-46
2022/10/10 07:01:53;;;;;;;8.03;4.43;;;7.50;99.90;;;;;;6245952;22;20155;-45
2022/10/10 07:04:18;;;;;;;7.90;4.70;;;7.60;99.90;;;;;;6246373;22;20230;-46
2022/10/10 07:06:44;;;;;;;8.63;4.43;;;7.70;99.90;;;;;;6246801;22;20171;-46
2022/10/10 07:09:09;;;;;;;8.37;5.17;;;7.80;99.90;;;;;;6245967;22;20158;-45
2022/10/10 07:11:35;;;;;;;10.73;5.07;;;7.80;99.90;;;;;;6245884;22;20158;-46
2022/10/10 07:14:01;;;;;;;8.23;5.50;;;7.90;99.90;;;;;;6245871;22;20213;-46
2022/10/10 07:16:26;;;;;;;6.90;5.00;;;8.00;99.90;;;;;;6246219;22;20621;-46
2022/10/10 07:18:52;;;;;;;10.00;5.13;;;8.10;99.90;;;;;;6246100;22;20240;-45
2022/10/10 07:21:17;;;;;;;7.97;5.97;;;8.10;99.90;;;;;;6246169;22;20235;-45
2022/10/10 07:23:43;;;;;;;10.63;5.33;;;8.20;99.90;;;;;;6245854;22;20151;-45
2022/10/10 07:26:13;;;;;;;7.57;5.23;;;8.20;99.90;;;;;;6245788;22;20163;-46
2022/10/10 07:28:39;;;;;;;8.47;6.03;;;8.30;99.90;;;;;;6246168;23;20182;-45
2022/10/10 07:31:09;;;;;;;14.87;6.23;;;8.40;99.90;;;;;;6245878;22;20160;-44
2022/10/10 07:33:40;;;;;;;12.93;6.07;;;8.50;99.90;;;;;;6245731;22;20175;-45
2022/10/10 07:36:06;;;;;;;14.67;6.47;;;8.60;99.90;;;;;;6246197;22;20150;-45
2022/10/10 07:38:33;;;;;;;15.93;7.00;;;8.70;99.90;;;;;;6247547;22;20228;-45
2022/10/10 07:40:58;;;;;;;12.27;6.83;;;8.90;99.90;;;;;;6247702;22;20155;-46
2022/10/10 07:43:24;;;;;;;17.60;6.80;;;8.90;99.90;;;;;;6248116;22;20158;-45
2022/10/10 07:45:49;;;;;;;13.30;6.97;;;8.90;99.90;;;;;;6247633;22;20589;-45
2022/10/10 07:48:15;;;;;;;9.63;6.50;;;9.00;99.90;;;;;;6247595;22;20640;-45
2022/10/10 07:50:42;;;;;;;12.40;6.73;;;9.00;99.90;;;;;;6247752;22;20155;-46
2022/10/10 07:53:08;;;;;;;15.73;7.17;;;9.10;99.90;;;;;;6247922;22;20199;-45
2022/10/10 07:55:37;;;;;;;13.10;6.33;;;9.10;99.90;;;;;;6247760;22;20483;-45
2022/10/10 07:58:02;;;;;;;13.33;8.17;;;9.10;99.90;;;;;;6248330;22;20254;-45
2022/10/10 08:00:28;;;;;;;15.00;8.20;;;9.20;99.90;;;;;;6247876;22;20562;-44
2022/10/10 08:02:54;;;;;;;14.80;8.07;;;9.30;99.90;;;;;;6247793;22;20152;-45
2022/10/10 08:05:20;;;;;;;11.43;8.30;;;9.40;99.90;;;;;;6247441;22;20209;-45
2022/10/10 08:07:46;;;;;;;18.53;9.37;;;9.50;99.90;;;;;;6247732;22;20203;-45
2022/10/10 08:10:12;;;;;;;11.80;8.93;;;9.70;99.90;;;;;;6246236;23;20160;-45
2022/10/10 08:12:38;;;;;;;17.23;10.20;;;9.90;99.90;;;;;;6245990;23;20163;-44
2022/10/10 08:15:05;;;;;;;13.93;9.70;;;10.10;99.90;;;;;;6245850;23;20628;-45
2022/10/10 08:17:31;;;;;;;20.43;10.80;;;10.20;99.90;;;;;;6245662;23;20187;-45
2022/10/10 08:19:56;;;;;;;23.50;10.63;;;10.40;99.90;;;;;;6247298;22;20178;-45
2022/10/10 08:22:22;;;;;;;18.00;9.40;;;10.60;99.90;;;;;;6245954;23;20175;-45
2022/10/10 08:24:47;;;;;;;13.93;7.87;;;10.80;99.90;;;;;;6247495;22;20500;-45
2022/10/10 08:27:16;;;;;;;10.87;7.80;;;11.10;99.90;;;;;;6247283;22;20175;-46
2022/10/10 08:29:42;;;;;;;12.97;7.97;;;11.20;99.90;;;;;;6247799;22;20190;-46
2022/10/10 08:32:07;;;;;;;15.77;7.57;;;11.50;99.90;;;;;;6245447;23;20502;-46
2022/10/10 08:34:33;;;;;;;16.30;6.67;;;11.70;99.90;;;;;;6247273;22;20613;-44
2022/10/10 08:36:59;;;;;;;12.77;6.73;;;12.70;99.90;;;;;;6247168;22;20179;-42
2022/10/10 08:39:24;;;;;;;14.23;6.43;;;12.10;99.90;;;;;;6247304;22;20229;-44
2022/10/10 08:41:58;;;;;;;17.70;6.43;;;12.20;99.90;;;;;;6247714;22;20156;-42
2022/10/10 08:44:48;;;;;;;11.30;6.53;;;12.40;99.90;;;;;;6247513;22;20207;-41
2022/10/10 08:47:27;;;;;;;15.03;7.23;;;12.50;99.90;;;;;;6247327;22;20180;-40
2022/10/10 08:50:00;;;;;;;14.83;5.60;;;12.80;99.90;;;;;;6247015;22;20145;-40
2022/10/10 08:52:56;;;;;;;17.00;6.20;;;12.90;99.90;;;;;;6247497;22;20142;-41
2022/10/10 08:55:36;;;;;;;9.93;4.70;;;13.10;99.90;;;;;;6245580;23;20245;-42
2022/10/10 08:58:28;;;;;;;14.67;5.23;;;13.20;99.90;;;;;;6247331;22;20231;-41
2022/10/10 09:01:08;;;;;;;13.93;5.47;;;13.40;99.90;;;;;;6245675;23;20150;-40
2022/10/10 09:03:41;;;;;;;9.63;4.77;;;13.60;99.90;;;;;;6245492;23;20169;-39
2022/10/10 09:06:40;;;;;;;12.47;4.83;;;13.80;99.90;;;;;;6245496;23;20157;-42
2022/10/10 09:09:43;;;;;;;10.93;3.73;;;13.90;99.90;;;;;;6245573;23;20147;-40
2022/10/10 09:12:08;;;;;;;9.40;3.97;;;14.20;99.90;;;;;;6245395;23;20478;-42
2022/10/10 09:14:39;;;;;;;6.13;3.97;;;14.30;99.90;;;;;;6247168;22;20154;-45
2022/10/10 09:17:31;;;;;;;8.37;3.60;;;14.50;99.90;;;;;;6247109;22;20186;-43
2022/10/10 09:20:08;;;;;;;9.93;3.40;;;14.60;99.90;;;;;;6247599;22;20200;-47
2022/10/10 09:22:58;;;;;;;9.27;3.07;;;14.80;99.90;;;;;;6245406;23;20176;-48
2022/10/10 09:25:36;;;;;;;9.40;3.10;;;14.90;99.90;;;;;;6245988;23;20159;-47
2022/10/10 09:28:09;;;;;;;8.60;3.77;;;15.00;99.90;;;;;;6247906;22;20175;-47
2022/10/10 09:30:40;;;;;;;7.23;2.57;;;15.00;99.90;;;;;;6245157;23;20496;-47
2022/10/10 09:33:24;;;;;;;5.70;2.60;;;15.10;99.90;;;;;;6246742;22;20221;-49
2022/10/10 09:35:52;;;;;;;6.10;3.33;;;15.20;99.90;;;;;;6245863;22;20196;-42
2022/10/10 09:38:40;;;;;;;8.07;2.40;;;15.30;99.90;;;;;;6246989;22;20222;-42
2022/10/10 09:41:14;;;;;;;6.83;3.00;;;15.30;99.90;;;;;;6245161;23;20140;-42
2022/10/10 09:43:41;;;;;;;12.47;2.80;;;15.40;99.90;;;;;;6247129;22;20135;-42
2022/10/10 09:46:06;;;;;;;9.83;2.63;;;15.50;99.90;;;;;;6245102;23;20162;-43
2022/10/10 09:48:40;;;;;;;12.73;3.07;;;15.70;99.90;;;;;;6247012;22;20171;-40
2022/10/10 09:51:12;;;;;;;11.90;2.57;;;15.80;99.90;;;;;;6247275;22;20206;-42
2022/10/10 09:53:39;;;;;;;9.10;2.70;;;16.00;99.90;;;;;;6247840;22;20171;-41
2022/10/10 09:56:07;;;;;;;10.87;3.23;;;16.20;99.90;;;;;;6246870;22;20211;-39
2022/10/10 09:58:41;;;;;;;13.00;2.77;;;16.20;99.90;;;;;;6246821;22;20182;-39
2022/10/10 10:01:20;;;;;;;6.90;2.43;;;16.40;99.90;;;;;;6246798;22;20166;-38
2022/10/10 10:04:06;;;;;;;5.00;2.10;;;16.60;99.90;;;;;;6246716;22;20148;-40
2022/10/10 10:06:32;;;;;;;10.57;2.70;;;16.80;99.90;;;;;;6246784;22;20195;-41
2022/10/10 10:09:01;;;;;;;7.67;2.53;;;16.90;99.90;;;;;;6247197;22;20158;-41
2022/10/10 10:11:30;;;;;;;4.37;2.20;;;17.10;99.90;;;;;;6244983;23;20163;-41
2022/10/10 10:13:58;;;;;;;10.80;2.00;;;17.30;99.90;;;;;;6246460;22;20155;-39
2022/10/10 10:16:36;;;;;;;9.60;2.20;;;17.40;99.90;;;;;;6246337;22;20303;-38
2022/10/10 10:19:03;;;;;;;7.03;1.90;;;17.40;99.90;;;;;;6244722;23;20183;-39
2022/10/10 10:21:29;;;;;;;8.50;1.93;;;17.60;99.90;;;;;;6246349;22;20585;-41
2022/10/10 10:24:01;;;;;;;7.30;2.00;;;17.70;99.90;;;;;;6246394;22;20183;-39
2022/10/10 10:26:42;;;;;;;8.60;2.00;;;17.90;99.90;;;;;;6246340;22;20197;-37
2022/10/10 10:29:30;;;;;;;7.77;2.30;;;18.00;99.90;;;;;;6246861;22;20136;-41
2022/10/10 10:32:20;;;;;;;9.43;2.13;;;18.30;99.90;;;;;;6247094;22;20144;-40
2022/10/10 10:34:52;;;;;;;9.90;1.93;;;18.40;99.90;;;;;;6246221;23;20146;-41
2022/10/10 10:37:59;;;;;;;9.73;2.43;;;18.60;99.90;;;;;;6246131;22;20199;-40
2022/10/10 10:40:40;;;;;;;13.57;2.73;;;18.60;99.90;;;;;;6215979;22;20155;-39
2022/10/10 10:43:43;;;;;;;14.53;2.43;;;18.80;99.90;;;;;;6246976;22;20139;-41
2022/10/10 10:46:18;;;;;;;9.17;2.10;;;19.00;99.90;;;;;;6246334;23;20181;-41
2022/10/10 10:48:57;;;;;;;9.93;2.30;;;19.10;99.90;;;;;;6247759;22;20484;-39
2022/10/10 10:51:42;;;;;;;11.77;2.20;;;19.30;99.90;;;;;;6246946;22;20190;-39
2022/10/10 10:54:14;;;;;;;5.03;2.37;;;19.50;99.90;;;;;;6246792;22;20213;-40
2022/10/10 10:57:16;;;;;;;8.27;1.80;;;19.60;99.90;;;;;;6246968;22;20183;-38
2022/10/10 11:00:18;;;;;;;8.43;2.30;;;19.60;99.90;;;;;;6203176;22;20171;-40
2022/10/10 11:03:14;;;;;;;7.07;2.00;;;19.60;99.90;;;;;;6198027;22;20167;-39
2022/10/10 11:05:53;;;;;;;9.97;2.10;;;19.70;99.90;;;;;;6246487;22;20166;-40
2022/10/10 11:08:27;;;;;;;7.00;2.30;;;19.80;99.90;;;;;;6246057;22;20172;-41
2022/10/10 11:11:19;;;;;;;7.87;1.97;;;19.80;99.90;;;;;;6246204;22;20139;-40
2022/10/10 11:13:59;;;;;;;13.00;2.20;;;19.90;99.90;;;;;;6248295;23;20148;-40
2022/10/10 11:16:31;;;;;;;6.90;2.10;;;19.90;99.90;;;;;;6248103;22;20140;-42
2022/10/10 11:19:09;;;;;;;7.03;2.13;;;19.90;99.90;;;;;;6248399;22;20598;-41
2022/10/10 11:21:40;;;;;;;8.70;2.17;;;19.90;99.90;;;;;;6248372;22;20139;-38
2022/10/10 11:24:12;;;;;;;5.03;2.00;;;19.90;99.90;;;;;;6248737;22;20147;-38
2022/10/10 11:26:49;;;;;;;13.63;2.30;;;19.90;99.90;;;;;;6248241;22;20171;-43
2022/10/10 11:29:26;;;;;;;9.40;2.03;;;19.90;99.90;;;;;;6248455;22;20592;-42
2022/10/10 11:31:55;;;;;;;7.90;1.63;;;20.00;99.90;;;;;;6248980;22;20194;-40
2022/10/10 11:34:34;;;;;;;6.63;2.10;;;20.00;99.90;;;;;;6248312;22;20152;-38
2022/10/10 11:37:09;;;;;;;7.23;2.30;;;20.00;99.90;;;;;;6247960;22;20190;-40
2022/10/10 11:39:44;;;;;;;7.60;1.70;;;20.00;99.90;;;;;;6247732;22;20167;-42
2022/10/10 11:42:24;;;;;;;10.43;2.03;;;20.00;99.90;;;;;;6248395;22;20143;-39
2022/10/10 11:45:04;;;;;;;7.13;1.90;;;20.00;99.90;;;;;;6248254;22;20143;-41
2022/10/10 11:47:50;;;;;;;7.63;1.50;;;20.00;99.90;;;;;;6248130;22;20213;-39
2022/10/10 11:50:33;;;;;;;7.57;1.60;;;20.00;99.90;;;;;;6248244;23;20140;-40
2022/10/10 11:53:14;;;;;;;7.67;2.53;;;20.10;99.90;;;;;;6246466;23;20521;-43
2022/10/10 11:56:08;;;;;;;14.50;2.23;;;20.20;99.90;;;;;;6248287;22;20255;-39
2022/10/10 11:58:45;;;;;;;9.37;2.00;;;20.20;99.90;;;;;;6247939;22;20179;-39
2022/10/10 12:01:26;;;;;;;7.93;2.23;;;20.20;99.90;;;;;;6247804;22;20600;-40
2022/10/10 12:03:52;;;;;;;12.60;2.53;;;20.20;99.90;;;;;;6247648;22;20144;-40
2022/10/10 12:06:35;;;;;;;9.80;2.20;;;20.20;99.90;;;;;;6247949;22;20247;-39
2022/10/10 12:09:32;;;;;;;12.27;2.30;;;20.20;99.90;;;;;;6247938;22;20151;-41
2022/10/10 12:12:18;;;;;;;8.07;2.67;;;20.20;99.90;;;;;;6248002;22;20624;-41
2022/10/10 12:14:52;;;;;;;13.97;2.10;;;20.10;99.90;;;;;;6247984;22;20144;-40
2022/10/10 12:17:31;;;;;;;9.13;2.53;;;20.10;99.90;;;;;;6247556;22;20233;-40
2022/10/10 12:20:29;;;;;;;5.07;2.03;;;20.20;99.90;;;;;;6247416;22;20182;-41
2022/10/10 12:23:13;;;;;;;7.47;1.80;;;20.20;99.90;;;;;;6245805;23;20148;-42
2022/10/10 12:25:44;;;;;;;6.67;1.90;;;20.20;99.90;;;;;;6247343;22;20162;-40
2022/10/10 12:28:13;;;;;;;10.47;2.23;;;20.20;99.90;;;;;;6247683;22;20574;-43
2022/10/10 12:30:54;;;;;;;6.10;2.13;;;20.20;99.90;;;;;;6247410;22;20654;-41
2022/10/10 12:33:42;;;;;;;10.40;2.20;;;20.30;99.90;;;;;;6247395;22;20234;-40
2022/10/10 12:36:19;;;;;;;6.80;2.27;;;20.30;99.90;;;;;;6201941;22;20183;-42
2022/10/10 12:39:00;;;;;;;10.47;2.10;;;20.40;99.90;;;;;;6247254;22;20186;-43
2022/10/10 12:41:49;;;;;;;4.93;1.93;;;20.40;99.90;;;;;;6245779;23;20174;-42
2022/10/10 12:44:22;;;;;;;5.10;2.20;;;20.30;99.90;;;;;;6227811;23;20475;-41
2022/10/10 12:47:13;;;;;;;9.77;3.03;;;20.30;99.90;;;;;;6247854;22;20176;-41
2022/10/10 12:49:54;;;;;;;13.97;2.53;;;20.30;99.90;;;;;;6247269;22;20166;-40
2022/10/10 12:52:24;;;;;;;9.00;2.10;;;20.40;99.90;;;;;;6248000;22;20147;-41
2022/10/10 12:54:51;;;;;;;5.23;2.00;;;20.50;99.90;;;;;;6247783;22;20155;-40
2022/10/10 12:57:27;;;;;;;12.20;2.17;;;20.50;99.90;;;;;;6247208;22;20553;-39
2022/10/10 12:59:53;;;;;;;10.23;2.30;;;20.50;99.90;;;;;;6247727;22;20139;-42
2022/10/10 13:02:25;;;;;;;10.77;2.70;;;20.60;99.90;;;;;;6245905;23;20541;-43
2022/10/10 13:04:57;;;;;;;18.50;2.70;;;20.60;99.90;;;;;;6247573;23;20486;-41
2022/10/10 13:07:24;;;;;;;12.63;2.80;;;20.60;99.90;;;;;;6247538;22;20173;-41
2022/10/10 13:09:53;;;;;;;10.53;2.20;;;20.60;99.90;;;;;;6247074;22;20156;-40
2022/10/10 13:12:27;;;;;;;9.83;2.67;;;20.50;99.90;;;;;;6247187;22;20155;-42